Time;durP1;ratioP1;P1;durP2;ratioP2;P2;SDS_P1;SDS_P2;PMS_P1;PMS_P2;Temp;Humidity;BMP_temperature;BMP_pressure;BME280_temperature;BME280_humidity;BME280_pressure;Samples;Min_cycle;Max_cycle;Signal;HPM_P1;HPM_P2
2022/09/16 00:01:12;;;;;;;1.50;0.45;;;;;;;14.85;75.70;100682.28;5013253;28;20038;-90
2022/09/16 00:03:38;;;;;;;1.75;0.47;;;;;;;14.77;76.71;100683.84;5012812;28;20101;-90
2022/09/16 00:06:03;;;;;;;5.00;0.70;;;;;;;14.84;76.79;100691.16;5014080;28;20034;-90
2022/09/16 00:08:29;;;;;;;3.28;0.57;;;;;;;14.76;77.00;100679.56;5014015;28;20476;-90
2022/09/16 00:10:59;;;;;;;5.18;0.95;;;;;;;14.72;77.76;100678.97;5013968;28;20033;-90
2022/09/16 00:13:24;;;;;;;2.63;0.68;;;;;;;14.43;80.18;100681.25;5013980;28;20096;-90
2022/09/16 00:15:49;;;;;;;3.75;0.90;;;;;;;14.60;79.60;100686.06;5012075;28;20480;-90
2022/09/16 00:18:15;;;;;;;2.53;1.00;;;;;;;14.58;79.64;100685.34;5013708;28;20479;-91
2022/09/16 00:20:51;;;;;;;3.58;1.08;;;;;;;14.50;80.96;100692.19;5013784;28;20048;-90
2022/09/16 00:23:18;;;;;;;2.70;0.70;;;;;;;14.41;81.12;100688.47;5013751;28;20034;-90
2022/09/16 00:25:43;;;;;;;4.32;0.75;;;;;;;14.45;81.38;100695.19;5013622;28;20029;-90
2022/09/16 00:28:09;;;;;;;6.13;0.82;;;;;;;14.17;83.47;100692.09;5013316;28;20068;-90
2022/09/16 00:30:35;;;;;;;3.47;0.70;;;;;;;14.37;82.40;100692.31;5012739;28;20025;-90
2022/09/16 00:33:00;;;;;;;6.65;1.42;;;;;;;14.14;84.58;100692.34;5012640;28;20502;-91
2022/09/16 00:35:25;;;;;;;2.13;0.57;;;;;;;14.29;83.65;100692.94;5014085;28;20427;-90
2022/09/16 00:37:51;;;;;;;3.53;0.82;;;;;;;14.34;83.05;100692.59;5013913;28;20477;-90
2022/09/16 00:40:16;;;;;;;3.58;0.90;;;;;;;14.21;83.74;100690.06;5013687;28;20029;-90
2022/09/16 00:42:42;;;;;;;2.63;1.08;;;;;;;14.04;84.38;100686.06;5013723;28;20032;-90
2022/09/16 00:45:22;;;;;;;6.60;0.90;;;;;;;13.91;86.60;100693.28;5012498;28;20028;-90
2022/09/16 00:47:49;;;;;;;2.75;0.75;;;;;;;14.09;84.94;100695.31;5013432;28;20389;-90
2022/09/16 00:50:27;;;;;;;3.53;1.13;;;;;;;13.91;86.44;100688.84;5013616;28;20101;-90
2022/09/16 00:52:55;;;;;;;7.75;1.00;;;;;;;13.97;86.28;100684.91;5012323;28;20022;-91
2022/09/16 00:55:24;;;;;;;2.92;0.80;;;;;;;14.11;84.60;100686.47;5013556;28;20029;-91
2022/09/16 00:57:53;;;;;;;5.22;0.80;;;;;;;13.97;85.30;100679.63;5012669;28;20029;-90
2022/09/16 01:00:19;;;;;;;4.50;1.02;;;;;;;14.04;85.02;100688.72;5011933;28;20487;-90
2022/09/16 01:02:45;;;;;;;1.67;0.50;;;;;;;14.14;84.65;100700.28;5013331;28;20032;-90
2022/09/16 01:05:19;;;;;;;1.58;0.52;;;;;;;14.04;84.93;100697.50;5013401;28;20033;-90
2022/09/16 01:07:46;;;;;;;4.28;0.70;;;;;;;13.81;86.49;100695.81;5013073;28;20443;-90
2022/09/16 01:10:14;;;;;;;5.05;1.02;;;;;;;13.91;85.49;100703.84;5012814;28;20022;-90
2022/09/16 01:12:43;;;;;;;2.97;0.77;;;;;;;13.92;85.54;100700.25;5012371;28;20026;-90
2022/09/16 01:15:11;;;;;;;4.28;0.80;;;;;;;13.74;85.63;100697.22;5013191;28;20033;-89
2022/09/16 01:17:59;;;;;;;1.77;0.70;;;;;;;13.74;86.29;100703.34;5013073;28;20088;-90
2022/09/16 01:20:30;;;;;;;1.55;0.65;;;;;;;13.79;86.62;100706.47;5012817;28;20036;-90
2022/09/16 01:23:28;;;;;;;6.60;0.77;;;;;;;13.58;86.36;100706.28;5009972;28;20058;-90
2022/09/16 01:26:11;;;;;;;1.67;0.70;;;;;;;13.63;86.89;100703.34;5010742;28;20038;-90
2022/09/16 01:28:57;;;;;;;1.85;0.60;;;;;;;13.54;86.80;100704.84;5012207;28;20108;-90
2022/09/16 01:31:37;;;;;;;3.20;0.70;;;;;;;13.42;87.50;100711.88;5005340;28;20092;-90
2022/09/16 01:34:21;;;;;;;2.85;0.80;;;;;;;13.43;88.18;100716.22;5012395;28;20034;-90
2022/09/16 01:36:56;;;;;;;3.67;0.60;;;;;;;13.34;88.25;100703.72;5013183;28;20407;-90
2022/09/16 01:39:34;;;;;;;3.95;0.80;;;;;;;13.26;88.68;100708.69;5011282;28;20026;-91
2022/09/16 01:42:08;;;;;;;4.03;1.02;;;;;;;13.39;88.09;100713.91;5012128;28;20022;-90
2022/09/16 01:44:57;;;;;;;2.13;0.73;;;;;;;13.41;88.44;100715.50;4992831;28;20058;-90
2022/09/16 01:47:55;;;;;;;4.32;0.90;;;;;;;13.54;87.60;100710.13;4987349;28;20142;-90
2022/09/16 01:50:31;;;;;;;2.90;0.80;;;;;;;13.45;87.86;100710.84;4993256;28;20109;-91
2022/09/16 01:53:08;;;;;;;3.55;0.95;;;;;;;13.49;88.07;100713.13;4992001;28;20026;-90
2022/09/16 01:55:39;;;;;;;1.48;0.60;;;;;;;13.42;88.61;100721.59;5011260;28;20517;-89
2022/09/16 01:58:22;;;;;;;3.47;0.75;;;;;;;13.61;87.24;100716.63;5012278;28;20185;-89
2022/09/16 02:00:52;;;;;;;4.00;0.85;;;;;;;13.62;87.11;100709.56;5012234;28;20491;-91
2022/09/16 02:03:27;;;;;;;2.65;0.80;;;;;;;13.57;87.35;100719.63;5010668;28;20070;-90
2022/09/16 02:06:05;;;;;;;4.40;1.50;;;;;;;13.51;88.06;100722.69;5011961;28;20026;-90
2022/09/16 02:08:39;;;;;;;6.07;1.00;;;;;;;13.43;88.25;100718.03;5011333;28;20113;-90
2022/09/16 02:11:08;;;;;;;3.50;0.80;;;;;;;13.59;87.98;100717.72;5011992;28;20137;-90
2022/09/16 02:13:37;;;;;;;2.28;0.60;;;;;;;13.79;86.40;100724.13;5012043;28;20026;-90
2022/09/16 02:16:11;;;;;;;2.38;0.70;;;;;;;13.53;88.17;100710.28;5012194;28;20060;-90
2022/09/16 02:18:40;;;;;;;1.08;0.40;;;;;;;13.55;87.75;100708.34;5011761;28;20030;-90
2022/09/16 02:21:10;;;;;;;3.45;0.75;;;;;;;13.40;87.85;100719.06;5010957;28;20037;-90
2022/09/16 02:23:44;;;;;;;3.00;0.63;;;;;;;13.26;88.56;100706.88;5011148;28;20033;-89
2022/09/16 02:26:17;;;;;;;1.80;0.50;;;;;;;13.10;89.63;100711.63;5011874;28;20045;-89
2022/09/16 02:28:46;;;;;;;2.45;1.17;;;;;;;13.17;89.37;100707.59;5010648;28;20026;-90
2022/09/16 02:31:13;;;;;;;2.65;0.60;;;;;;;13.05;89.74;100708.47;5011777;28;20026;-91
2022/09/16 02:33:54;;;;;;;4.43;0.88;;;;;;;13.19;89.46;100707.47;5011856;28;20022;-89
2022/09/16 02:36:23;;;;;;;2.78;0.85;;;;;;;12.94;90.29;100711.91;5011887;28;20025;-90
2022/09/16 02:38:55;;;;;;;3.05;0.82;;;;;;;13.00;90.98;100705.34;5013170;28;20514;-90
2022/09/16 02:41:21;;;;;;;3.92;1.13;;;;;;;13.06;90.31;100726.81;5015750;28;20026;-90
2022/09/16 02:43:47;;;;;;;1.77;0.60;;;;;;;13.03;90.90;100716.53;5014121;28;20028;-90
2022/09/16 02:46:23;;;;;;;4.28;0.77;;;;;;;13.09;91.62;100723.13;5015755;28;20014;-90
2022/09/16 02:48:58;;;;;;;2.83;0.90;;;;;;;12.92;92.50;100721.72;5015632;28;20041;-91
2022/09/16 02:51:58;;;;;;;1.73;0.50;;;;;;;13.00;92.93;100722.00;5015926;28;20034;-90
2022/09/16 02:54:40;;;;;;;1.90;0.60;;;;;;;13.29;90.86;100717.25;5014067;28;20109;-91
2022/09/16 02:57:07;;;;;;;2.28;0.63;;;;;;;13.40;90.80;100713.81;4995899;28;20445;-90
2022/09/16 02:59:33;;;;;;;2.67;0.60;;;;;;;13.44;90.66;100696.78;4994435;28;20427;-90
2022/09/16 03:02:00;;;;;;;3.45;0.93;;;;;;;13.60;89.99;100711.47;4995950;28;20030;-91
2022/09/16 03:04:25;;;;;;;3.40;1.00;;;;;;;13.66;89.84;100703.09;4995736;28;20385;-91
2022/09/16 03:06:50;;;;;;;4.68;0.77;;;;;;;13.77;89.56;100703.09;4994320;28;20029;-91
2022/09/16 03:09:17;;;;;;;1.65;0.55;;;;;;;13.81;89.53;100709.00;4997768;28;20033;-90
2022/09/16 03:12:05;;;;;;;2.35;0.95;;;;;;;13.92;89.50;100703.75;5013091;28;20026;-91
2022/09/16 03:15:09;;;;;;;2.75;0.50;;;;;;;14.08;89.12;100720.06;5015128;28;20034;-91
2022/09/16 03:17:59;;;;;;;2.70;0.52;;;;;;;14.18;88.51;100714.91;5000197;28;20038;-91
2022/09/16 03:21:03;;;;;;;2.65;0.80;;;;;;;14.18;87.53;100711.41;5013499;28;20578;-90
2022/09/16 03:23:43;;;;;;;1.80;0.60;;;;;;;14.36;88.24;100702.06;4973150;28;20374;-91
2022/09/16 03:26:20;;;;;;;1.67;0.40;;;;;;;14.47;87.26;100706.47;5009181;28;21059;-90
2022/09/16 03:28:58;;;;;;;1.65;0.52;;;;;;;14.62;86.94;100696.53;5013517;28;20026;-91
2022/09/16 03:31:56;;;;;;;2.53;0.47;;;;;;;14.62;85.72;100694.72;5014469;28;20391;-91
2022/09/16 03:34:34;;;;;;;3.00;0.70;;;;;;;14.53;86.21;100703.34;5014338;28;20036;-91
2022/09/16 03:37:04;;;;;;;3.05;0.75;;;;;;;14.76;86.50;100713.91;5014478;28;20020;-91
2022/09/16 03:39:31;;;;;;;2.33;0.40;;;;;;;14.66;86.16;100698.78;5013565;28;20034;-91
2022/09/16 03:42:07;;;;;;;3.03;0.80;;;;;;;14.86;85.70;100704.28;5014212;28;20486;-91
2022/09/16 03:44:38;;;;;;;2.22;0.57;;;;;;;14.99;84.05;100697.03;5014184;28;20022;-90
2022/09/16 03:47:04;;;;;;;1.40;0.55;;;;;;;14.99;84.61;100699.66;5012999;28;20439;-91
2022/09/16 03:49:30;;;;;;;2.35;0.60;;;;;;;14.95;84.10;100692.09;5012061;28;20029;-90
2022/09/16 03:51:57;;;;;;;2.10;0.50;;;;;;;14.84;84.42;100706.19;5012791;28;20030;-90
2022/09/16 03:54:22;;;;;;;1.42;0.70;;;;;;;14.83;84.76;100696.56;5012190;28;20113;-90
2022/09/16 03:56:48;;;;;;;2.30;0.50;;;;;;;14.77;85.12;100710.28;5013967;28;20539;-90
2022/09/16 03:59:13;;;;;;;0.80;0.40;;;;;;;14.48;86.33;100701.06;5014029;28;20029;-90
2022/09/16 04:01:39;;;;;;;5.95;0.68;;;;;;;14.44;87.25;100717.31;5012845;28;20436;-91
2022/09/16 04:04:04;;;;;;;1.90;0.50;;;;;;;14.64;86.75;100719.22;5014015;28;20026;-91
2022/09/16 04:06:29;;;;;;;3.30;0.70;;;;;;;14.51;85.83;100718.47;5012588;28;20040;-92
2022/09/16 04:08:59;;;;;;;0.38;0.35;;;;;;;14.59;86.07;100713.47;5014018;28;20029;-90
2022/09/16 04:11:25;;;;;;;2.28;0.40;;;;;;;14.61;85.85;100714.19;5013822;28;20050;-91
2022/09/16 04:13:50;;;;;;;2.55;0.55;;;;;;;14.55;85.43;100711.97;5013674;28;20057;-91
2022/09/16 04:16:20;;;;;;;3.97;0.50;;;;;;;14.61;85.47;100718.63;5013039;28;20038;-90
2022/09/16 04:18:45;;;;;;;2.30;1.20;;;;;;;14.51;85.39;100710.53;5013583;28;20029;-90
2022/09/16 04:21:11;;;;;;;1.75;0.55;;;;;;;14.42;85.82;100717.41;5013502;28;20376;-90
2022/09/16 04:23:36;;;;;;;1.30;0.40;;;;;;;13.81;87.87;100701.91;5013194;28;20108;-91
2022/09/16 04:26:02;;;;;;;1.92;0.50;;;;;;;13.85;88.24;100726.28;5012263;28;20033;-90
2022/09/16 04:28:32;;;;;;;1.02;0.30;;;;;;;13.95;87.54;100734.34;5012092;28;20026;-90
2022/09/16 04:31:05;;;;;;;1.58;0.50;;;;;;;13.82;87.34;100735.28;5012418;28;20116;-90
2022/09/16 04:33:33;;;;;;;3.55;0.80;;;;;;;13.61;88.16;100718.44;5013277;28;20029;-91
2022/09/16 04:36:13;;;;;;;2.97;0.60;;;;;;;13.58;88.64;100737.97;5013112;28;20055;-90
2022/09/16 04:38:41;;;;;;;1.35;0.40;;;;;;;13.53;88.08;100726.94;5013188;28;20026;-90
2022/09/16 04:41:12;;;;;;;4.40;0.40;;;;;;;13.37;88.56;100729.88;5013001;28;20038;-90
2022/09/16 04:43:38;;;;;;;1.13;0.50;;;;;;;13.24;88.98;100727.25;5012975;28;20029;-90
2022/09/16 04:46:04;;;;;;;0.80;0.43;;;;;;;13.12;90.38;100727.34;5012413;28;20034;-90
2022/09/16 04:48:30;;;;;;;2.15;0.47;;;;;;;13.00;90.23;100724.63;5011754;28;20120;-90
2022/09/16 04:51:05;;;;;;;1.65;0.50;;;;;;;13.00;89.92;100729.06;5013082;28;20152;-90
2022/09/16 04:53:30;;;;;;;0.70;0.65;;;;;;;12.88;90.94;100731.66;5012905;28;20030;-90
2022/09/16 04:56:19;;;;;;;0.68;0.50;;;;;;;12.89;90.66;100725.44;5011554;28;20029;-90
2022/09/16 04:58:53;;;;;;;3.00;0.90;;;;;;;12.74;90.32;100725.66;5012848;28;20514;-91
2022/09/16 05:01:26;;;;;;;2.45;0.73;;;;;;;12.65;91.87;100733.28;5012164;28;20129;-90
2022/09/16 05:03:54;;;;;;;3.22;0.80;;;;;;;12.34;92.83;100731.16;5012807;28;20033;-91
2022/09/16 05:06:23;;;;;;;2.20;0.52;;;;;;;12.43;92.77;100725.25;5012858;28;20037;-90
2022/09/16 05:08:49;;;;;;;1.25;0.55;;;;;;;12.30;92.83;100726.13;5011565;28;20113;-92
2022/09/16 05:11:21;;;;;;;1.77;0.70;;;;;;;12.29;93.23;100724.41;5012781;28;20536;-91
2022/09/16 05:13:46;;;;;;;1.80;0.50;;;;;;;12.36;93.14;100727.47;5010616;28;20032;-91
2022/09/16 05:16:18;;;;;;;1.30;0.45;;;;;;;12.43;92.55;100723.44;5011252;28;20450;-91
2022/09/16 05:18:45;;;;;;;4.13;1.30;;;;;;;12.15;94.96;100729.81;5011380;28;20038;-91
2022/09/16 05:21:13;;;;;;;1.23;0.50;;;;;;;12.29;93.42;100724.41;5011067;28;20476;-90
2022/09/16 05:23:39;;;;;;;2.53;0.60;;;;;;;12.04;94.71;100733.16;5012247;28;20203;-91
2022/09/16 05:26:25;;;;;;;4.72;0.60;;;;;;;12.21;94.52;100729.38;5012225;28;20165;-91
2022/09/16 05:28:51;;;;;;;1.17;0.52;;;;;;;12.26;93.75;100727.28;5010053;28;20442;-90
2022/09/16 05:31:17;;;;;;;4.20;0.60;;;;;;;12.32;93.94;100735.69;5011619;28;20022;-93
2022/09/16 05:33:53;;;;;;;1.30;0.68;;;;;;;12.26;93.63;100726.41;4999204;28;20041;-92
2022/09/16 05:36:19;;;;;;;1.98;0.65;;;;;;;12.17;94.72;100730.53;4992599;28;20033;-92
2022/09/16 05:38:45;;;;;;;2.47;0.80;;;;;;;12.02;94.99;100731.59;4991098;28;20435;-90
2022/09/16 05:41:11;;;;;;;1.73;0.50;;;;;;;12.01;95.23;100735.19;4992467;28;20377;-91
2022/09/16 05:43:37;;;;;;;2.35;0.60;;;;;;;12.01;95.31;100737.81;5017851;28;20084;-92
2022/09/16 05:46:04;;;;;;;2.08;0.57;;;;;;;12.13;96.39;100751.94;5011950;28;20420;-92
2022/09/16 05:48:30;;;;;;;2.38;0.70;;;;;;;12.15;95.62;100745.59;5011382;28;20030;-91
2022/09/16 05:51:02;;;;;;;4.32;0.93;;;;;;;12.23;95.86;100750.34;5010807;28;20026;-92
2022/09/16 05:53:29;;;;;;;3.00;0.90;;;;;;;12.18;96.82;100744.53;5012202;28;20026;-91
2022/09/16 05:56:00;;;;;;;3.03;0.65;;;;;;;12.27;96.25;100750.00;5012259;28;20080;-90
2022/09/16 05:58:27;;;;;;;3.72;0.90;;;;;;;12.21;97.69;100753.06;5010763;28;20033;-91
2022/09/16 06:01:06;;;;;;;1.58;0.63;;;;;;;12.24;97.75;100757.28;5011713;28;20034;-92
2022/09/16 06:03:33;;;;;;;4.60;0.60;;;;;;;12.39;96.69;100755.38;5009965;28;20022;-91
2022/09/16 06:06:00;;;;;;;4.05;0.63;;;;;;;12.44;95.78;100759.38;5011925;28;20428;-89
2022/09/16 06:08:26;;;;;;;4.50;0.80;;;;;;;12.41;96.18;100750.84;5011804;28;20026;-92
2022/09/16 06:10:52;;;;;;;3.90;0.80;;;;;;;12.34;96.57;100757.47;5011693;28;20018;-91
2022/09/16 06:13:18;;;;;;;1.35;0.60;;;;;;;12.42;96.36;100750.75;5012895;28;20036;-92
2022/09/16 06:15:53;;;;;;;3.38;0.77;;;;;;;12.44;96.87;100761.16;5015828;28;20056;-93
2022/09/16 06:18:18;;;;;;;3.15;1.33;;;;;;;12.40;97.21;100770.22;5015099;28;20025;-92
2022/09/16 06:20:44;;;;;;;5.85;1.30;;;;;;;12.45;97.35;100762.84;5015930;28;20041;-93
2022/09/16 06:23:10;;;;;;;4.45;0.70;;;;;;;12.58;96.70;100761.03;5015707;28;20029;-92
2022/09/16 06:25:36;;;;;;;3.90;0.95;;;;;;;12.56;97.58;100768.22;5015463;28;20030;-90
2022/09/16 06:28:02;;;;;;;1.73;0.80;;;;;;;12.67;97.17;100770.91;5014468;28;20037;-91
2022/09/16 06:30:28;;;;;;;1.55;0.60;;;;;;;12.64;97.31;100763.22;5015234;28;20536;-91
2022/09/16 06:32:53;;;;;;;5.72;1.42;;;;;;;12.66;97.17;100758.69;5014420;28;20117;-92
2022/09/16 06:35:18;;;;;;;2.50;1.00;;;;;;;12.88;96.58;100770.34;5015379;28;20117;-94
2022/09/16 06:37:44;;;;;;;2.22;0.90;;;;;;;12.94;96.18;100769.06;5014111;28;20068;-92
2022/09/16 06:40:09;;;;;;;4.63;0.60;;;;;;;13.02;97.07;100772.81;5015197;28;20029;-91
2022/09/16 06:42:35;;;;;;;1.95;0.80;;;;;;;12.96;97.20;100772.44;5013757;28;20514;-93
2022/09/16 06:45:03;;;;;;;9.25;1.33;;;;;;;12.89;97.95;100783.41;5015237;28;20065;-93
2022/09/16 06:47:29;;;;;;;3.35;1.00;;;;;;;13.29;96.71;100779.69;5013336;28;20427;-91
2022/09/16 06:49:55;;;;;;;4.20;1.02;;;;;;;13.28;96.46;100780.63;5014440;28;20026;-93
2022/09/16 06:52:21;;;;;;;3.45;0.70;;;;;;;13.49;96.06;100779.06;5013472;28;20093;-94
2022/09/16 06:54:47;;;;;;;2.53;0.80;;;;;;;13.64;95.50;100784.16;5015116;28;20022;-92
2022/09/16 06:57:12;;;;;;;3.40;0.98;;;;;;;13.82;95.12;100784.56;5015349;28;20025;-94
2022/09/16 06:59:37;;;;;;;5.53;1.17;;;;;;;14.00;94.09;100790.25;5013760;28;20021;-91
2022/09/16 07:02:03;;;;;;;8.27;1.10;;;;;;;13.97;94.31;100796.59;5014081;28;20045;-87
2022/09/16 07:04:28;;;;;;;1.30;0.60;;;;;;;14.11;94.23;100798.19;5014911;28;20392;-89
2022/09/16 07:06:56;;;;;;;6.15;0.90;;;;;;;14.21;93.53;100788.59;5013787;28;20380;-88
2022/09/16 07:09:22;;;;;;;6.47;1.00;;;;;;;14.36;92.48;100804.25;5015513;28;20069;-88
2022/09/16 07:11:48;;;;;;;3.80;0.98;;;;;;;14.11;93.13;100803.47;5018826;28;20470;-88
2022/09/16 07:14:13;;;;;;;2.33;1.02;;;;;;;14.47;92.26;100799.81;5015532;28;20037;-89
2022/09/16 07:16:39;;;;;;;3.33;0.93;;;;;;;14.70;90.25;100794.53;5014966;28;20026;-95
2022/09/16 07:19:04;;;;;;;3.75;0.70;;;;;;;14.67;89.49;100790.34;5013798;28;20065;-94
2022/09/16 07:21:31;;;;;;;2.42;0.55;;;;;;;14.82;88.29;100808.59;5014070;28;20124;-90
2022/09/16 07:23:58;;;;;;;5.10;1.00;;;;;;;15.07;88.00;100807.47;5012790;28;20030;-90
2022/09/16 07:26:26;;;;;;;2.38;0.80;;;;;;;15.56;86.24;100805.25;5014113;28;20018;-89
2022/09/16 07:28:53;;;;;;;3.55;1.10;;;;;;;15.67;83.80;100791.97;5014637;28;20105;-89
2022/09/16 07:31:24;;;;;;;4.78;0.93;;;;;;;15.75;82.74;100792.19;5013356;28;20029;-89
2022/09/16 07:33:51;;;;;;;4.65;0.85;;;;;;;15.78;82.16;100807.00;5014296;28;20018;-88
2022/09/16 07:36:26;;;;;;;3.78;0.80;;;;;;;16.30;81.18;100805.22;5013136;28;20491;-90
2022/09/16 07:38:53;;;;;;;3.80;0.57;;;;;;;16.95;77.70;100803.13;5013938;28;20380;-90
2022/09/16 07:41:25;;;;;;;2.72;0.60;;;;;;;16.52;78.28;100803.38;5013640;28;20539;-91
2022/09/16 07:43:53;;;;;;;7.95;1.05;;;;;;;17.65;73.79;100808.38;5012548;28;20472;-90
2022/09/16 07:46:19;;;;;;;4.40;0.80;;;;;;;18.37;69.97;100817.66;5028561;28;20026;-91
2022/09/16 07:48:46;;;;;;;3.25;0.80;;;;;;;16.78;74.10;100819.66;5013905;28;20472;-91
2022/09/16 07:51:16;;;;;;;5.03;1.20;;;;;;;17.57;72.59;100814.38;5013338;28;20571;-90
2022/09/16 07:53:43;;;;;;;6.03;0.73;;;;;;;21.89;58.32;100815.75;5012699;28;20022;-91
2022/09/16 07:56:17;;;;;;;5.53;0.70;;;;;;;27.29;41.15;100823.16;5012256;28;20026;-91
2022/09/16 07:58:44;;;;;;;5.60;0.95;;;;;;;27.72;38.74;100821.94;5012202;28;20480;-92
2022/09/16 08:01:10;;;;;;;;;;;;;;;28.98;36.85;100815.44;5007927;28;20162;-93
2022/09/16 08:03:37;;;;;;;6.95;1.02;;;;;;;27.94;37.41;100824.44;5003257;28;20001;-92
2022/09/16 08:06:04;;;;;;;;;;;;;;;32.64;30.12;100824.75;5009091;28;20033;-94
2022/09/16 08:08:30;;;;;;;;;;;;;;;33.91;27.73;100818.06;5010988;28;20368;-94
2022/09/16 08:10:55;;;;;;;;;;;;;;;36.43;25.14;100817.84;5027786;28;19921;-94
2022/09/16 08:13:21;;;;;;;;;;;;;;;38.47;23.56;100805.28;5005192;28;20047;-95
2022/09/16 08:15:46;;;;;;;;;;;;;;;37.93;22.43;100811.50;4998282;28;20530;-94
2022/09/16 08:18:12;;;;;;;;;;;;;;;37.12;23.41;100819.47;4999632;28;19918;-96
2022/09/16 08:20:37;;;;;;;;;;;;;;;37.03;24.47;100821.91;5008487;28;19918;-96
2022/09/16 08:23:02;;;;;;;;;;;;;;;35.14;24.71;100813.34;5012899;28;19917;-95
2022/09/16 08:25:27;;;;;;;;;;;;;;;34.02;25.67;100786.34;5012624;28;19963;-93
2022/09/16 08:27:53;;;;;;;;;;;;;;;36.74;23.12;100813.34;5013473;28;19932;-93
2022/09/16 08:30:18;;;;;;;;;;;;;;;33.96;25.65;100823.56;5012488;28;19925;-92
2022/09/16 08:32:43;;;;;;;;;;;;;;;36.88;22.49;100821.84;5007563;28;19943;-93
2022/09/16 08:35:09;;;;;;;;;;;;;;;39.79;20.42;100800.00;4995128;28;19972;-93
2022/09/16 08:37:34;;;;;;;;;;;;;;;38.76;21.56;100768.97;5002507;28;19921;-94
2022/09/16 08:40:00;;;;;;;;;;;;;;;38.36;21.30;100779.03;5001517;28;20064;-94
2022/09/16 08:42:34;;;;;;;;;;;;;;;40.43;19.85;100778.66;4994571;28;20008;-94
2022/09/16 08:45:08;;;;;;;;;;;;;;;40.10;20.63;100768.63;4993365;28;20375;-94
2022/09/16 08:47:41;;;;;;;;;;;;;;;39.26;20.72;100778.78;4998240;28;20375;-92
2022/09/16 08:50:11;;;;;;;;;;;;;;;38.11;21.13;100804.63;5012883;28;19916;-93
2022/09/16 08:52:38;;;;;;;;;;;;;;;38.35;21.19;100824.84;5011587;28;20352;-92
2022/09/16 08:55:08;;;;;;;;;;;;;;;40.16;20.76;100837.00;4993358;28;19945;-93
2022/09/16 08:57:37;;;;;;;;;;;;;;;42.18;19.24;100836.44;4992515;28;19913;-93
2022/09/16 09:00:10;;;;;;;;;;;;;;;38.20;20.25;100841.34;5003030;28;19913;-93
2022/09/16 09:02:48;;;;;;;;;;;;;;;36.89;21.96;100837.16;5002863;28;19918;-94
2022/09/16 09:05:16;;;;;;;;;;;;;;;36.60;22.41;100834.06;4993142;28;20326;-95
2022/09/16 09:08:01;;;;;;;;;;;;;;;38.27;21.06;100837.22;5001334;28;19913;-94
2022/09/16 09:10:35;;;;;;;;;;;;;;;38.49;21.58;100836.84;5002197;28;19979;-95
2022/09/16 09:13:20;;;;;;;;;;;;;;;38.68;20.46;100831.56;4995538;28;19913;-95
2022/09/16 09:15:51;;;;;;;;;;;;;;;36.03;23.76;100809.16;5012998;28;20015;-94
2022/09/16 09:18:23;;;;;;;;;;;;;;;37.63;22.07;100807.72;5012744;28;20482;-95
2022/09/16 09:20:53;;;;;;;;;;;;;;;39.20;21.37;100818.38;5008098;28;19936;-93
2022/09/16 09:23:24;;;;;;;;;;;;;;;34.71;24.04;100820.53;5022385;28;19937;-92
2022/09/16 09:25:52;;;;;;;;;;;;;;;34.93;24.17;100825.94;5011030;28;19924;-93
2022/09/16 09:28:20;;;;;;;;;;;;;;;37.18;22.29;100834.78;5015066;28;19913;-93
2022/09/16 09:30:53;;;;;;;;;;;;;;;34.31;24.84;100829.81;5016916;28;20447;-93
2022/09/16 09:33:19;;;;;;;;;;;;;;;38.41;21.40;100822.88;5017824;28;20327;-93
2022/09/16 09:36:03;;;;;;;;;;;;;;;35.92;23.48;100832.03;5008309;28;19917;-93
2022/09/16 09:38:31;;;;;;;;;;;;;;;36.60;23.18;100834.88;5022608;28;19917;-92
2022/09/16 09:40:59;;;;;;;;;;;;;;;33.94;24.79;100839.34;5023084;28;19918;-92
2022/09/16 09:43:37;;;;;;;;;;;;;;;36.86;21.95;100843.19;5016694;28;20184;-93
2022/09/16 09:46:09;;;;;;;;;;;;;;;36.57;22.75;100843.59;5011661;28;19909;-93
2022/09/16 09:48:40;;;;;;;;;;;;;;;37.83;21.72;100837.81;5013352;28;19917;-93
2022/09/16 09:51:12;;;;;;;;;;;;;;;37.90;21.81;100846.59;5008813;28;19909;-93
2022/09/16 09:53:48;;;;;;;;;;;;;;;37.28;22.04;100850.41;5004050;28;19948;-93
2022/09/16 09:56:24;;;;;;;;;;;;;;;35.36;23.65;100848.78;5022582;28;19909;-93
2022/09/16 09:58:56;;;;;;;;;;;;;;;39.83;20.51;100850.56;5012592;28;19918;-92
2022/09/16 10:01:21;;;;;;;;;;;;;;;38.27;21.42;100847.34;5018522;28;19929;-93
2022/09/16 10:03:47;;;;;;;;;;;;;;;41.69;19.52;100857.19;5003236;28;19914;-92
2022/09/16 10:06:14;;;;;;;;;;;;;;;39.35;19.94;100853.13;5010994;28;19916;-92
2022/09/16 10:08:47;;;;;;;;;;;;;;;41.37;19.44;100856.91;5003067;28;19956;-93
2022/09/16 10:11:20;;;;;;;;;;;;;;;39.31;20.04;100856.75;5013597;28;19963;-91
2022/09/16 10:13:47;;;;;;;;;;;;;;;38.30;20.74;100857.78;4997879;28;19952;-93
2022/09/16 10:16:24;;;;;;;;;;;;;;;37.63;21.62;100868.00;4996661;28;20328;-93
2022/09/16 10:18:55;;;;;;;;;;;;;;;39.28;20.56;100860.88;4998811;28;19945;-93
2022/09/16 10:21:20;;;;;;;;;;;;;;;37.31;21.60;100856.16;5008726;28;20330;-93
2022/09/16 10:23:56;;;;;;;;;;;;;;;39.32;20.50;100861.13;5012402;28;19918;-92
2022/09/16 10:26:21;;;;;;;;;;;;;;;41.14;19.65;100864.13;5001784;28;19940;-92
2022/09/16 10:28:53;;;;;;;;;;;;;;;39.34;20.88;100857.00;5004814;28;20460;-93
2022/09/16 10:31:18;;;;;;;;;;;;;;;42.08;19.11;100854.00;5002643;28;19910;-94
2022/09/16 10:33:44;;;;;;;;;;;;;;;40.82;19.57;100856.59;5011566;28;19967;-94
2022/09/16 10:36:16;;;;;;;;;;;;;;;41.48;19.24;100857.53;4994175;28;20096;-94
2022/09/16 10:39:08;;;;;;;;;;;;;;;41.06;18.29;100861.19;5010780;28;20333;-93
2022/09/16 10:41:41;;;;;;;;;;;;;;;39.28;19.69;100858.16;5010607;28;19913;-92
2022/09/16 10:44:13;;;;;;;;;;;;;;;37.45;21.24;100859.19;4992272;28;19921;-94
2022/09/16 10:46:49;;;;;;;;;;;;;;;39.27;20.51;100859.22;4999429;28;20375;-93
2022/09/16 10:49:18;;;;;;;;;;;;;;;39.12;20.55;100857.41;5005268;28;19917;-93
2022/09/16 10:51:43;;;;;;;;;;;;;;;37.84;21.27;100863.34;5004704;28;19917;-93
2022/09/16 10:54:22;;;;;;;;;;;;;;;37.66;20.56;100859.22;5009310;28;19902;-95
2022/09/16 10:56:49;;;;;;;;;;;;;;;37.89;21.84;100855.09;4996692;28;20047;-93
2022/09/16 10:59:14;;;;;;;;;;;;;;;40.03;19.50;100857.78;4995938;28;19922;-93
2022/09/16 11:01:58;;;;;;;;;;;;;;;37.77;21.39;100855.38;4996176;28;20011;-93
2022/09/16 11:04:26;;;;;;;;;;;;;;;36.44;22.73;100847.66;4996624;28;20049;-91
2022/09/16 11:07:00;;;;;;;;;;;;;;;36.82;21.00;100856.59;4999456;28;19917;-92
2022/09/16 11:09:44;;;;;;;;;;;;;;;35.85;23.13;100856.03;5002001;28;19933;-92
2022/09/16 11:12:32;;;;;;;;;;;;;;;30.64;27.61;100861.22;4992352;28;19921;-91
2022/09/16 11:15:10;;;;;;;;;;;;;;;28.56;30.85;100865.53;4997105;28;20012;-91
2022/09/16 11:17:39;;;;;;;;;;;;;;;30.79;28.07;100869.81;5000241;28;19914;-91
2022/09/16 11:20:04;;;;;;;;;;;;;;;32.29;27.51;100869.91;5001397;28;19914;-91
2022/09/16 11:22:39;;;;;;;;;;;;;;;32.75;26.44;100864.66;5005063;28;21741;-92
2022/09/16 11:25:10;;;;;;;;;;;;;;;33.75;25.63;100865.19;5006643;28;20011;-93
2022/09/16 11:27:42;;;;;;;;;;;;;;;31.05;27.80;100867.03;4999797;28;19972;-94
2022/09/16 11:30:10;;;;;;;;;;;;;;;32.36;26.03;100873.31;4996451;28;19918;-91
2022/09/16 11:32:47;;;;;;;;;;;;;;;31.57;26.36;100881.72;5004369;28;19968;-91
2022/09/16 11:35:22;;;;;;;;;;;;;;;28.37;28.97;100891.50;4998918;28;19929;-89
2022/09/16 11:38:13;;;;;;;;;;;;;;;29.00;28.67;100882.81;4993433;28;19965;-90
2022/09/16 11:40:46;;;;;;;;;;;;;;;30.63;26.78;100875.84;4987276;28;19973;-90
2022/09/16 11:43:14;;;;;;;;;;;;;;;30.08;27.79;100884.69;5000627;28;19953;-90
2022/09/16 11:45:49;;;;;;;;;;;;;;;31.25;26.12;100877.59;5003020;28;20299;-90
2022/09/16 11:48:22;;;;;;;;;;;;;;;33.31;24.56;100879.38;4999278;28;19924;-90
2022/09/16 11:50:56;;;;;;;;;;;;;;;32.32;25.46;100880.28;4988453;28;19914;-90
2022/09/16 11:53:21;;;;;;;;;;;;;;;34.73;23.42;100879.19;5000314;28;19951;-90
2022/09/16 11:55:56;;;;;;;;;;;;;;;34.72;22.28;100874.81;5000492;28;20424;-91
2022/09/16 11:58:27;;;;;;;;;;;;;;;32.71;23.83;100880.63;4994280;28;20435;-90
2022/09/16 12:00:55;;;;;;;;;;;;;;;31.61;25.17;100877.47;4995492;28;19948;-89
2022/09/16 12:03:38;;;;;;;;;;;;;;;29.49;26.85;100881.34;5006469;28;20011;-89
2022/09/16 12:06:07;;;;;;;;;;;;;;;29.00;28.53;100888.22;4994809;28;20444;-91